sensor_id;sensor_type;location;lat;lon;timestamp;P1;durP1;ratioP1;P2;durP2;ratioP2
76786;SDS011;65739;51.482;5.702;2023-06-10T00:00:25;17.02;;;5.72;;
76786;SDS011;65739;51.482;5.702;2023-06-10T00:02:50;7.55;;;5.70;;
76786;SDS011;65739;51.482;5.702;2023-06-10T00:05:16;10.63;;;5.85;;
76786;SDS011;65739;51.482;5.702;2023-06-10T00:07:45;10.85;;;5.82;;
76786;SDS011;65739;51.482;5.702;2023-06-10T00:10:13;10.18;;;5.70;;
76786;SDS011;65739;51.482;5.702;2023-06-10T00:12:38;10.63;;;5.82;;
76786;SDS011;65739;51.482;5.702;2023-06-10T00:15:05;8.60;;;5.88;;
76786;SDS011;65739;51.482;5.702;2023-06-10T00:17:31;8.55;;;6.43;;
76786;SDS011;65739;51.482;5.702;2023-06-10T00:19:57;8.55;;;6.05;;
76786;SDS011;65739;51.482;5.702;2023-06-10T00:22:23;6.68;;;5.47;;
76786;SDS011;65739;51.482;5.702;2023-06-10T00:24:54;7.60;;;5.88;;
76786;SDS011;65739;51.482;5.702;2023-06-10T00:27:20;8.90;;;5.93;;
76786;SDS011;65739;51.482;5.702;2023-06-10T00:29:46;7.15;;;6.00;;
76786;SDS011;65739;51.482;5.702;2023-06-10T00:32:12;8.60;;;5.43;;
76786;SDS011;65739;51.482;5.702;2023-06-10T00:34:37;8.52;;;5.93;;
76786;SDS011;65739;51.482;5.702;2023-06-10T00:37:03;7.57;;;5.47;;
76786;SDS011;65739;51.482;5.702;2023-06-10T00:39:29;9.10;;;6.13;;
76786;SDS011;65739;51.482;5.702;2023-06-10T00:41:54;7.68;;;5.78;;
76786;SDS011;65739;51.482;5.702;2023-06-10T00:44:20;7.88;;;6.10;;
76786;SDS011;65739;51.482;5.702;2023-06-10T00:46:45;9.63;;;6.00;;
76786;SDS011;65739;51.482;5.702;2023-06-10T00:49:11;8.85;;;6.05;;
76786;SDS011;65739;51.482;5.702;2023-06-10T00:51:37;9.82;;;5.85;;
76786;SDS011;65739;51.482;5.702;2023-06-10T00:54:04;11.15;;;6.00;;
76786;SDS011;65739;51.482;5.702;2023-06-10T00:56:30;9.52;;;6.25;;
76786;SDS011;65739;51.482;5.702;2023-06-10T00:58:57;9.50;;;6.10;;
76786;SDS011;65739;51.482;5.702;2023-06-10T01:01:23;12.48;;;6.47;;
76786;SDS011;65739;51.482;5.702;2023-06-10T01:03:50;13.13;;;6.45;;
76786;SDS011;65739;51.482;5.702;2023-06-10T01:06:23;10.80;;;6.50;;
76786;SDS011;65739;51.482;5.702;2023-06-10T01:09:18;10.50;;;6.03;;
76786;SDS011;65739;51.482;5.702;2023-06-10T01:11:58;7.47;;;6.00;;
76786;SDS011;65739;51.482;5.702;2023-06-10T01:14:34;8.00;;;5.90;;
76786;SDS011;65739;51.482;5.702;2023-06-10T01:17:00;8.70;;;6.47;;
76786;SDS011;65739;51.482;5.702;2023-06-10T01:19:28;8.73;;;6.72;;
76786;SDS011;65739;51.482;5.702;2023-06-10T01:21:56;8.73;;;6.65;;
76786;SDS011;65739;51.482;5.702;2023-06-10T01:24:25;7.53;;;6.53;;
76786;SDS011;65739;51.482;5.702;2023-06-10T01:26:51;9.57;;;6.47;;
76786;SDS011;65739;51.482;5.702;2023-06-10T01:29:23;9.73;;;6.40;;
76786;SDS011;65739;51.482;5.702;2023-06-10T01:32:11;9.60;;;6.30;;
76786;SDS011;65739;51.482;5.702;2023-06-10T01:34:42;7.82;;;6.85;;
76786;SDS011;65739;51.482;5.702;2023-06-10T01:37:09;9.52;;;6.93;;
76786;SDS011;65739;51.482;5.702;2023-06-10T01:39:38;7.45;;;6.75;;
76786;SDS011;65739;51.482;5.702;2023-06-10T01:42:04;8.30;;;6.72;;
76786;SDS011;65739;51.482;5.702;2023-06-10T01:44:31;9.68;;;6.75;;
76786;SDS011;65739;51.482;5.702;2023-06-10T01:46:57;7.45;;;6.65;;
76786;SDS011;65739;51.482;5.702;2023-06-10T01:49:23;12.90;;;6.53;;
76786;SDS011;65739;51.482;5.702;2023-06-10T01:51:49;8.48;;;6.13;;
76786;SDS011;65739;51.482;5.702;2023-06-10T01:54:15;8.20;;;6.85;;
76786;SDS011;65739;51.482;5.702;2023-06-10T01:56:41;8.48;;;6.78;;
76786;SDS011;65739;51.482;5.702;2023-06-10T01:59:06;7.88;;;6.72;;
76786;SDS011;65739;51.482;5.702;2023-06-10T02:01:33;8.40;;;6.85;;
76786;SDS011;65739;51.482;5.702;2023-06-10T02:03:58;8.32;;;6.80;;
76786;SDS011;65739;51.482;5.702;2023-06-10T02:06:24;11.88;;;7.53;;
76786;SDS011;65739;51.482;5.702;2023-06-10T02:08:49;9.00;;;7.30;;
76786;SDS011;65739;51.482;5.702;2023-06-10T02:11:15;8.63;;;7.07;;
76786;SDS011;65739;51.482;5.702;2023-06-10T02:13:41;9.00;;;7.00;;
76786;SDS011;65739;51.482;5.702;2023-06-10T02:16:06;12.43;;;7.10;;
76786;SDS011;65739;51.482;5.702;2023-06-10T02:18:32;8.90;;;7.45;;
76786;SDS011;65739;51.482;5.702;2023-06-10T02:20:58;10.77;;;7.45;;
76786;SDS011;65739;51.482;5.702;2023-06-10T02:23:24;8.63;;;7.68;;
76786;SDS011;65739;51.482;5.702;2023-06-10T02:25:49;12.63;;;7.72;;
76786;SDS011;65739;51.482;5.702;2023-06-10T02:28:15;12.98;;;8.02;;
76786;SDS011;65739;51.482;5.702;2023-06-10T02:30:41;9.70;;;7.80;;
76786;SDS011;65739;51.482;5.702;2023-06-10T02:33:07;10.32;;;8.13;;
76786;SDS011;65739;51.482;5.702;2023-06-10T02:35:38;14.45;;;8.23;;
76786;SDS011;65739;51.482;5.702;2023-06-10T02:38:04;9.93;;;7.88;;
76786;SDS011;65739;51.482;5.702;2023-06-10T02:40:29;9.23;;;8.07;;
76786;SDS011;65739;51.482;5.702;2023-06-10T02:42:55;9.85;;;7.82;;
76786;SDS011;65739;51.482;5.702;2023-06-10T02:45:21;11.45;;;8.32;;
76786;SDS011;65739;51.482;5.702;2023-06-10T02:47:46;11.00;;;8.40;;
76786;SDS011;65739;51.482;5.702;2023-06-10T02:50:12;14.10;;;8.27;;
76786;SDS011;65739;51.482;5.702;2023-06-10T02:52:37;10.45;;;8.32;;
76786;SDS011;65739;51.482;5.702;2023-06-10T02:55:03;15.02;;;8.43;;
76786;SDS011;65739;51.482;5.702;2023-06-10T02:57:29;10.98;;;8.80;;
76786;SDS011;65739;51.482;5.702;2023-06-10T02:59:55;11.80;;;8.35;;
76786;SDS011;65739;51.482;5.702;2023-06-10T03:02:20;11.32;;;8.77;;
76786;SDS011;65739;51.482;5.702;2023-06-10T03:04:46;11.80;;;8.55;;
76786;SDS011;65739;51.482;5.702;2023-06-10T03:07:15;9.35;;;8.23;;
76786;SDS011;65739;51.482;5.702;2023-06-10T03:09:41;10.55;;;8.95;;
76786;SDS011;65739;51.482;5.702;2023-06-10T03:12:06;12.13;;;8.88;;
76786;SDS011;65739;51.482;5.702;2023-06-10T03:14:33;10.93;;;8.48;;
76786;SDS011;65739;51.482;5.702;2023-06-10T03:16:59;11.80;;;9.30;;
76786;SDS011;65739;51.482;5.702;2023-06-10T03:19:25;14.18;;;8.75;;
76786;SDS011;65739;51.482;5.702;2023-06-10T03:22:06;10.23;;;9.07;;
76786;SDS011;65739;51.482;5.702;2023-06-10T03:24:34;10.05;;;8.77;;
76786;SDS011;65739;51.482;5.702;2023-06-10T03:27:00;11.38;;;9.25;;
76786;SDS011;65739;51.482;5.702;2023-06-10T03:29:27;14.10;;;8.98;;
76786;SDS011;65739;51.482;5.702;2023-06-10T03:31:52;12.82;;;9.30;;
76786;SDS011;65739;51.482;5.702;2023-06-10T03:34:18;10.98;;;9.60;;
76786;SDS011;65739;51.482;5.702;2023-06-10T03:36:43;10.00;;;9.05;;
76786;SDS011;65739;51.482;5.702;2023-06-10T03:39:10;10.85;;;9.75;;
76786;SDS011;65739;51.482;5.702;2023-06-10T03:41:35;12.50;;;9.55;;
76786;SDS011;65739;51.482;5.702;2023-06-10T03:44:02;10.68;;;9.65;;
76786;SDS011;65739;51.482;5.702;2023-06-10T03:46:28;11.10;;;9.85;;
76786;SDS011;65739;51.482;5.702;2023-06-10T03:48:54;11.40;;;10.00;;
76786;SDS011;65739;51.482;5.702;2023-06-10T03:51:20;12.32;;;10.30;;
76786;SDS011;65739;51.482;5.702;2023-06-10T03:53:46;21.77;;;10.95;;
76786;SDS011;65739;51.482;5.702;2023-06-10T03:56:12;13.68;;;9.82;;
76786;SDS011;65739;51.482;5.702;2023-06-10T03:58:37;13.18;;;10.10;;
76786;SDS011;65739;51.482;5.702;2023-06-10T04:01:03;14.25;;;10.75;;
76786;SDS011;65739;51.482;5.702;2023-06-10T04:03:29;13.38;;;10.60;;
76786;SDS011;65739;51.482;5.702;2023-06-10T04:05:54;12.43;;;10.63;;
76786;SDS011;65739;51.482;5.702;2023-06-10T04:08:20;14.40;;;10.68;;
76786;SDS011;65739;51.482;5.702;2023-06-10T04:10:47;15.18;;;10.90;;
76786;SDS011;65739;51.482;5.702;2023-06-10T04:13:12;13.93;;;10.63;;
76786;SDS011;65739;51.482;5.702;2023-06-10T04:15:39;12.35;;;11.05;;
76786;SDS011;65739;51.482;5.702;2023-06-10T04:18:06;13.23;;;11.15;;
76786;SDS011;65739;51.482;5.702;2023-06-10T04:20:31;14.40;;;11.30;;
76786;SDS011;65739;51.482;5.702;2023-06-10T04:22:57;16.52;;;11.80;;
76786;SDS011;65739;51.482;5.702;2023-06-10T04:25:24;14.07;;;10.95;;
76786;SDS011;65739;51.482;5.702;2023-06-10T04:27:51;12.90;;;11.00;;
76786;SDS011;65739;51.482;5.702;2023-06-10T04:30:16;12.35;;;10.95;;
76786;SDS011;65739;51.482;5.702;2023-06-10T04:32:43;17.48;;;11.15;;
76786;SDS011;65739;51.482;5.702;2023-06-10T04:35:11;16.85;;;11.35;;
76786;SDS011;65739;51.482;5.702;2023-06-10T04:37:37;14.95;;;11.38;;
76786;SDS011;65739;51.482;5.702;2023-06-10T04:40:02;17.27;;;11.68;;
76786;SDS011;65739;51.482;5.702;2023-06-10T04:42:28;17.88;;;10.88;;
76786;SDS011;65739;51.482;5.702;2023-06-10T04:44:54;14.00;;;11.15;;
76786;SDS011;65739;51.482;5.702;2023-06-10T04:47:19;12.20;;;10.75;;
76786;SDS011;65739;51.482;5.702;2023-06-10T04:49:45;15.18;;;10.63;;
76786;SDS011;65739;51.482;5.702;2023-06-10T04:52:10;13.27;;;10.50;;
76786;SDS011;65739;51.482;5.702;2023-06-10T04:54:36;18.30;;;11.30;;
76786;SDS011;65739;51.482;5.702;2023-06-10T04:57:04;15.35;;;11.13;;
76786;SDS011;65739;51.482;5.702;2023-06-10T05:03:28;14.00;;;10.45;;
76786;SDS011;65739;51.482;5.702;2023-06-10T05:05:53;14.30;;;11.00;;
76786;SDS011;65739;51.482;5.702;2023-06-10T05:08:19;13.65;;;10.00;;
76786;SDS011;65739;51.482;5.702;2023-06-10T05:10:45;14.55;;;10.20;;
76786;SDS011;65739;51.482;5.702;2023-06-10T05:13:18;15.48;;;10.45;;
76786;SDS011;65739;51.482;5.702;2023-06-10T05:15:43;13.55;;;10.20;;
76786;SDS011;65739;51.482;5.702;2023-06-10T05:18:10;17.77;;;10.27;;
76786;SDS011;65739;51.482;5.702;2023-06-10T05:20:40;13.13;;;9.45;;
76786;SDS011;65739;51.482;5.702;2023-06-10T05:23:06;13.68;;;10.18;;
76786;SDS011;65739;51.482;5.702;2023-06-10T05:25:32;13.38;;;9.50;;
76786;SDS011;65739;51.482;5.702;2023-06-10T05:27:58;17.60;;;10.18;;
76786;SDS011;65739;51.482;5.702;2023-06-10T05:30:24;14.23;;;9.70;;
76786;SDS011;65739;51.482;5.702;2023-06-10T05:32:51;15.07;;;10.00;;
76786;SDS011;65739;51.482;5.702;2023-06-10T05:35:17;16.95;;;9.77;;
76786;SDS011;65739;51.482;5.702;2023-06-10T05:37:43;13.05;;;9.80;;
76786;SDS011;65739;51.482;5.702;2023-06-10T05:40:09;12.65;;;10.43;;
76786;SDS011;65739;51.482;5.702;2023-06-10T05:42:35;16.05;;;10.00;;
76786;SDS011;65739;51.482;5.702;2023-06-10T05:45:01;12.38;;;9.80;;
76786;SDS011;65739;51.482;5.702;2023-06-10T05:47:27;15.95;;;10.43;;
76786;SDS011;65739;51.482;5.702;2023-06-10T05:49:53;12.98;;;9.25;;
76786;SDS011;65739;51.482;5.702;2023-06-10T05:52:19;10.93;;;9.43;;
76786;SDS011;65739;51.482;5.702;2023-06-10T05:54:44;10.95;;;9.60;;
76786;SDS011;65739;51.482;5.702;2023-06-10T05:57:10;11.40;;;9.43;;
76786;SDS011;65739;51.482;5.702;2023-06-10T05:59:36;12.40;;;9.00;;
76786;SDS011;65739;51.482;5.702;2023-06-10T06:02:01;13.05;;;9.85;;
76786;SDS011;65739;51.482;5.702;2023-06-10T06:04:27;14.27;;;9.70;;
76786;SDS011;65739;51.482;5.702;2023-06-10T06:06:52;17.13;;;9.43;;
76786;SDS011;65739;51.482;5.702;2023-06-10T06:09:18;11.05;;;9.57;;
76786;SDS011;65739;51.482;5.702;2023-06-10T06:11:44;12.23;;;9.00;;
76786;SDS011;65739;51.482;5.702;2023-06-10T06:14:09;12.38;;;8.35;;
76786;SDS011;65739;51.482;5.702;2023-06-10T06:16:35;14.32;;;8.70;;
76786;SDS011;65739;51.482;5.702;2023-06-10T06:19:00;12.63;;;8.90;;
76786;SDS011;65739;51.482;5.702;2023-06-10T06:21:26;13.93;;;8.85;;
76786;SDS011;65739;51.482;5.702;2023-06-10T06:23:51;10.95;;;9.35;;
76786;SDS011;65739;51.482;5.702;2023-06-10T06:26:17;11.10;;;8.30;;
76786;SDS011;65739;51.482;5.702;2023-06-10T06:28:43;10.63;;;8.32;;
76786;SDS011;65739;51.482;5.702;2023-06-10T06:31:08;9.90;;;8.30;;
76786;SDS011;65739;51.482;5.702;2023-06-10T06:33:34;14.48;;;8.13;;
76786;SDS011;65739;51.482;5.702;2023-06-10T06:36:03;10.52;;;8.45;;
76786;SDS011;65739;51.482;5.702;2023-06-10T06:38:31;11.02;;;8.45;;
76786;SDS011;65739;51.482;5.702;2023-06-10T06:41:05;13.05;;;7.57;;
76786;SDS011;65739;51.482;5.702;2023-06-10T06:43:31;13.40;;;7.97;;
76786;SDS011;65739;51.482;5.702;2023-06-10T06:45:57;16.65;;;8.25;;
76786;SDS011;65739;51.482;5.702;2023-06-10T06:48:23;10.85;;;7.70;;
76786;SDS011;65739;51.482;5.702;2023-06-10T06:50:54;13.65;;;8.35;;
76786;SDS011;65739;51.482;5.702;2023-06-10T06:53:26;16.40;;;7.50;;
76786;SDS011;65739;51.482;5.702;2023-06-10T06:56:12;12.90;;;7.82;;
76786;SDS011;65739;51.482;5.702;2023-06-10T07:01:53;11.75;;;7.18;;
76786;SDS011;65739;51.482;5.702;2023-06-10T07:04:28;10.63;;;7.22;;
76786;SDS011;65739;51.482;5.702;2023-06-10T07:06:57;12.88;;;7.60;;
76786;SDS011;65739;51.482;5.702;2023-06-10T07:09:22;9.57;;;7.15;;
76786;SDS011;65739;51.482;5.702;2023-06-10T07:11:50;10.68;;;7.10;;
76786;SDS011;65739;51.482;5.702;2023-06-10T07:14:25;14.68;;;7.13;;
76786;SDS011;65739;51.482;5.702;2023-06-10T07:16:51;9.50;;;6.55;;
76786;SDS011;65739;51.482;5.702;2023-06-10T07:19:17;7.93;;;6.22;;
76786;SDS011;65739;51.482;5.702;2023-06-10T07:21:42;9.98;;;6.13;;
76786;SDS011;65739;51.482;5.702;2023-06-10T07:24:08;12.50;;;6.40;;
76786;SDS011;65739;51.482;5.702;2023-06-10T07:26:33;13.30;;;6.63;;
76786;SDS011;65739;51.482;5.702;2023-06-10T07:28:59;9.27;;;6.38;;
76786;SDS011;65739;51.482;5.702;2023-06-10T07:31:24;9.98;;;6.53;;
76786;SDS011;65739;51.482;5.702;2023-06-10T07:33:50;9.00;;;6.32;;
76786;SDS011;65739;51.482;5.702;2023-06-10T07:36:16;13.45;;;6.13;;
76786;SDS011;65739;51.482;5.702;2023-06-10T07:38:41;8.38;;;5.90;;
76786;SDS011;65739;51.482;5.702;2023-06-10T07:41:08;9.48;;;6.00;;
76786;SDS011;65739;51.482;5.702;2023-06-10T07:43:33;14.20;;;5.68;;
76786;SDS011;65739;51.482;5.702;2023-06-10T07:45:59;7.82;;;5.20;;
76786;SDS011;65739;51.482;5.702;2023-06-10T07:48:25;7.35;;;5.45;;
76786;SDS011;65739;51.482;5.702;2023-06-10T07:50:51;16.35;;;5.80;;
76786;SDS011;65739;51.482;5.702;2023-06-10T07:53:17;8.85;;;5.53;;
76786;SDS011;65739;51.482;5.702;2023-06-10T07:55:45;8.50;;;5.75;;
76786;SDS011;65739;51.482;5.702;2023-06-10T07:58:10;11.50;;;5.63;;
76786;SDS011;65739;51.482;5.702;2023-06-10T08:00:36;6.65;;;5.20;;
76786;SDS011;65739;51.482;5.702;2023-06-10T08:03:02;10.57;;;5.82;;
76786;SDS011;65739;51.482;5.702;2023-06-10T08:05:27;11.02;;;5.50;;
76786;SDS011;65739;51.482;5.702;2023-06-10T08:07:54;10.68;;;5.35;;
76786;SDS011;65739;51.482;5.702;2023-06-10T08:10:21;7.78;;;5.38;;
76786;SDS011;65739;51.482;5.702;2023-06-10T08:12:46;11.40;;;6.07;;
76786;SDS011;65739;51.482;5.702;2023-06-10T08:15:12;9.32;;;5.57;;
76786;SDS011;65739;51.482;5.702;2023-06-10T08:17:38;9.00;;;5.32;;
76786;SDS011;65739;51.482;5.702;2023-06-10T08:20:04;7.18;;;5.15;;
76786;SDS011;65739;51.482;5.702;2023-06-10T08:22:31;8.88;;;5.28;;
76786;SDS011;65739;51.482;5.702;2023-06-10T08:24:56;10.02;;;5.28;;
76786;SDS011;65739;51.482;5.702;2023-06-10T08:27:22;12.68;;;5.32;;
76786;SDS011;65739;51.482;5.702;2023-06-10T08:29:47;13.23;;;5.25;;
76786;SDS011;65739;51.482;5.702;2023-06-10T08:32:13;11.27;;;5.10;;
76786;SDS011;65739;51.482;5.702;2023-06-10T08:34:39;9.13;;;4.65;;
76786;SDS011;65739;51.482;5.702;2023-06-10T08:37:05;11.40;;;5.18;;
76786;SDS011;65739;51.482;5.702;2023-06-10T08:39:31;9.48;;;5.20;;
76786;SDS011;65739;51.482;5.702;2023-06-10T08:44:44;7.60;;;4.78;;
76786;SDS011;65739;51.482;5.702;2023-06-10T08:47:13;6.00;;;4.93;;
76786;SDS011;65739;51.482;5.702;2023-06-10T08:49:46;7.43;;;4.93;;
76786;SDS011;65739;51.482;5.702;2023-06-10T08:52:16;10.35;;;5.05;;
76786;SDS011;65739;51.482;5.702;2023-06-10T08:54:46;7.43;;;4.65;;
76786;SDS011;65739;51.482;5.702;2023-06-10T08:57:14;6.88;;;5.00;;
76786;SDS011;65739;51.482;5.702;2023-06-10T08:59:42;8.35;;;4.35;;
76786;SDS011;65739;51.482;5.702;2023-06-10T09:02:08;8.93;;;5.57;;
76786;SDS011;65739;51.482;5.702;2023-06-10T09:04:34;5.93;;;4.53;;
76786;SDS011;65739;51.482;5.702;2023-06-10T09:07:02;5.22;;;4.72;;
76786;SDS011;65739;51.482;5.702;2023-06-10T09:09:28;8.02;;;4.70;;
76786;SDS011;65739;51.482;5.702;2023-06-10T09:11:56;10.35;;;5.25;;
76786;SDS011;65739;51.482;5.702;2023-06-10T09:14:21;7.93;;;4.88;;
76786;SDS011;65739;51.482;5.702;2023-06-10T09:16:48;6.82;;;4.82;;
76786;SDS011;65739;51.482;5.702;2023-06-10T09:19:15;5.88;;;5.07;;
76786;SDS011;65739;51.482;5.702;2023-06-10T09:21:42;6.63;;;5.13;;
76786;SDS011;65739;51.482;5.702;2023-06-10T09:24:07;7.57;;;5.00;;
76786;SDS011;65739;51.482;5.702;2023-06-10T09:26:33;10.05;;;5.28;;
76786;SDS011;65739;51.482;5.702;2023-06-10T09:29:03;5.65;;;4.55;;
76786;SDS011;65739;51.482;5.702;2023-06-10T09:31:30;5.60;;;4.90;;
76786;SDS011;65739;51.482;5.702;2023-06-10T09:34:04;10.27;;;5.03;;
76786;SDS011;65739;51.482;5.702;2023-06-10T09:36:38;7.70;;;4.93;;
76786;SDS011;65739;51.482;5.702;2023-06-10T09:39:05;7.78;;;4.60;;
76786;SDS011;65739;51.482;5.702;2023-06-10T09:41:40;6.55;;;5.00;;
76786;SDS011;65739;51.482;5.702;2023-06-10T09:44:13;8.55;;;4.70;;
76786;SDS011;65739;51.482;5.702;2023-06-10T09:46:40;9.35;;;5.13;;
76786;SDS011;65739;51.482;5.702;2023-06-10T09:49:07;7.30;;;5.05;;
76786;SDS011;65739;51.482;5.702;2023-06-10T09:51:32;8.25;;;4.80;;
76786;SDS011;65739;51.482;5.702;2023-06-10T09:53:58;5.68;;;4.60;;
76786;SDS011;65739;51.482;5.702;2023-06-10T09:56:36;10.10;;;4.85;;
76786;SDS011;65739;51.482;5.702;2023-06-10T09:59:02;6.00;;;4.85;;
76786;SDS011;65739;51.482;5.702;2023-06-10T10:01:31;8.60;;;5.20;;
76786;SDS011;65739;51.482;5.702;2023-06-10T10:03:58;6.55;;;4.50;;
76786;SDS011;65739;51.482;5.702;2023-06-10T10:06:24;8.65;;;4.50;;
76786;SDS011;65739;51.482;5.702;2023-06-10T10:08:51;7.45;;;5.00;;
76786;SDS011;65739;51.482;5.702;2023-06-10T10:11:32;8.60;;;4.45;;
76786;SDS011;65739;51.482;5.702;2023-06-10T10:13:59;7.38;;;5.05;;
76786;SDS011;65739;51.482;5.702;2023-06-10T10:19:02;6.82;;;4.65;;
76786;SDS011;65739;51.482;5.702;2023-06-10T10:21:43;9.57;;;4.97;;
76786;SDS011;65739;51.482;5.702;2023-06-10T10:29:12;13.82;;;4.97;;
76786;SDS011;65739;51.482;5.702;2023-06-10T10:31:43;9.20;;;4.75;;
76786;SDS011;65739;51.482;5.702;2023-06-10T10:34:18;8.88;;;4.90;;
76786;SDS011;65739;51.482;5.702;2023-06-10T10:36:48;9.20;;;4.82;;
76786;SDS011;65739;51.482;5.702;2023-06-10T10:39:15;7.60;;;4.68;;
76786;SDS011;65739;51.482;5.702;2023-06-10T10:41:41;7.07;;;5.20;;
76786;SDS011;65739;51.482;5.702;2023-06-10T10:44:07;9.55;;;5.15;;
76786;SDS011;65739;51.482;5.702;2023-06-10T10:46:44;8.35;;;4.70;;
76786;SDS011;65739;51.482;5.702;2023-06-10T10:49:14;9.38;;;4.50;;
76786;SDS011;65739;51.482;5.702;2023-06-10T10:52:00;5.85;;;4.57;;
76786;SDS011;65739;51.482;5.702;2023-06-10T10:54:30;12.60;;;5.07;;
76786;SDS011;65739;51.482;5.702;2023-06-10T11:02:17;9.25;;;4.72;;
76786;SDS011;65739;51.482;5.702;2023-06-10T11:04:47;11.65;;;5.15;;
76786;SDS011;65739;51.482;5.702;2023-06-10T11:07:13;9.32;;;4.97;;
76786;SDS011;65739;51.482;5.702;2023-06-10T11:10:02;8.32;;;4.60;;
76786;SDS011;65739;51.482;5.702;2023-06-10T11:15:10;8.55;;;4.90;;
76786;SDS011;65739;51.482;5.702;2023-06-10T11:31:31;8.85;;;4.57;;
76786;SDS011;65739;51.482;5.702;2023-06-10T11:34:02;7.63;;;5.28;;
76786;SDS011;65739;51.482;5.702;2023-06-10T11:36:29;7.15;;;4.70;;
76786;SDS011;65739;51.482;5.702;2023-06-10T11:38:57;7.47;;;4.55;;
76786;SDS011;65739;51.482;5.702;2023-06-10T11:41:27;5.03;;;4.60;;
76786;SDS011;65739;51.482;5.702;2023-06-10T11:43:54;7.13;;;4.70;;
76786;SDS011;65739;51.482;5.702;2023-06-10T11:46:21;6.72;;;4.47;;
76786;SDS011;65739;51.482;5.702;2023-06-10T11:51:16;4.87;;;4.40;;
76786;SDS011;65739;51.482;5.702;2023-06-10T11:53:46;5.00;;;4.40;;
76786;SDS011;65739;51.482;5.702;2023-06-10T11:56:21;9.70;;;4.38;;
76786;SDS011;65739;51.482;5.702;2023-06-10T11:58:52;5.20;;;4.70;;
76786;SDS011;65739;51.482;5.702;2023-06-10T12:01:20;5.75;;;4.57;;
76786;SDS011;65739;51.482;5.702;2023-06-10T12:03:47;5.80;;;4.60;;
76786;SDS011;65739;51.482;5.702;2023-06-10T12:06:12;7.18;;;4.85;;
76786;SDS011;65739;51.482;5.702;2023-06-10T12:08:41;12.00;;;4.55;;
76786;SDS011;65739;51.482;5.702;2023-06-10T12:13:33;8.57;;;4.47;;
76786;SDS011;65739;51.482;5.702;2023-06-10T12:16:06;6.63;;;4.60;;
76786;SDS011;65739;51.482;5.702;2023-06-10T12:18:32;6.85;;;4.25;;
76786;SDS011;65739;51.482;5.702;2023-06-10T12:20:58;9.05;;;4.55;;
76786;SDS011;65739;51.482;5.702;2023-06-10T12:23:24;9.02;;;4.63;;
76786;SDS011;65739;51.482;5.702;2023-06-10T12:25:50;7.72;;;4.32;;
76786;SDS011;65739;51.482;5.702;2023-06-10T12:28:23;10.68;;;4.70;;
76786;SDS011;65739;51.482;5.702;2023-06-10T12:30:49;6.78;;;4.22;;
76786;SDS011;65739;51.482;5.702;2023-06-10T12:33:16;5.60;;;4.38;;
76786;SDS011;65739;51.482;5.702;2023-06-10T12:35:49;6.50;;;5.00;;
76786;SDS011;65739;51.482;5.702;2023-06-10T12:38:20;9.32;;;4.53;;
76786;SDS011;65739;51.482;5.702;2023-06-10T12:40:54;6.50;;;4.10;;
76786;SDS011;65739;51.482;5.702;2023-06-10T12:43:26;6.18;;;4.18;;
76786;SDS011;65739;51.482;5.702;2023-06-10T12:45:51;5.53;;;4.22;;
76786;SDS011;65739;51.482;5.702;2023-06-10T12:48:23;4.93;;;4.40;;
76786;SDS011;65739;51.482;5.702;2023-06-10T12:50:53;5.05;;;4.07;;
76786;SDS011;65739;51.482;5.702;2023-06-10T12:53:20;4.88;;;4.13;;
76786;SDS011;65739;51.482;5.702;2023-06-10T12:55:51;11.65;;;4.82;;
76786;SDS011;65739;51.482;5.702;2023-06-10T12:58:19;8.70;;;4.50;;
76786;SDS011;65739;51.482;5.702;2023-06-10T13:00:45;6.18;;;4.70;;
76786;SDS011;65739;51.482;5.702;2023-06-10T13:03:11;6.70;;;4.65;;
76786;SDS011;65739;51.482;5.702;2023-06-10T13:05:36;6.15;;;4.45;;
76786;SDS011;65739;51.482;5.702;2023-06-10T13:08:04;5.07;;;4.10;;
76786;SDS011;65739;51.482;5.702;2023-06-10T13:10:30;4.68;;;4.28;;
76786;SDS011;65739;51.482;5.702;2023-06-10T13:12:56;7.50;;;4.28;;
76786;SDS011;65739;51.482;5.702;2023-06-10T13:15:21;7.15;;;4.43;;
76786;SDS011;65739;51.482;5.702;2023-06-10T13:17:47;8.73;;;4.82;;
76786;SDS011;65739;51.482;5.702;2023-06-10T13:20:14;7.35;;;4.50;;
76786;SDS011;65739;51.482;5.702;2023-06-10T13:22:41;5.97;;;4.70;;
76786;SDS011;65739;51.482;5.702;2023-06-10T13:25:07;7.78;;;4.68;;
76786;SDS011;65739;51.482;5.702;2023-06-10T13:27:34;6.60;;;4.47;;
76786;SDS011;65739;51.482;5.702;2023-06-10T13:32:30;6.32;;;5.00;;
76786;SDS011;65739;51.482;5.702;2023-06-10T13:34:56;8.07;;;4.50;;
76786;SDS011;65739;51.482;5.702;2023-06-10T13:37:22;6.55;;;4.53;;
76786;SDS011;65739;51.482;5.702;2023-06-10T13:39:48;7.85;;;4.13;;
76786;SDS011;65739;51.482;5.702;2023-06-10T13:42:16;9.02;;;4.50;;
76786;SDS011;65739;51.482;5.702;2023-06-10T13:44:54;7.07;;;4.15;;
76786;SDS011;65739;51.482;5.702;2023-06-10T13:47:19;4.88;;;3.97;;
76786;SDS011;65739;51.482;5.702;2023-06-10T13:49:45;7.32;;;4.40;;
76786;SDS011;65739;51.482;5.702;2023-06-10T13:52:11;5.53;;;4.30;;
76786;SDS011;65739;51.482;5.702;2023-06-10T13:54:36;4.30;;;3.90;;
76786;SDS011;65739;51.482;5.702;2023-06-10T13:57:03;5.97;;;3.90;;
76786;SDS011;65739;51.482;5.702;2023-06-10T13:59:29;5.32;;;4.03;;
76786;SDS011;65739;51.482;5.702;2023-06-10T14:01:54;5.22;;;4.55;;
76786;SDS011;65739;51.482;5.702;2023-06-10T14:04:21;5.88;;;4.10;;
76786;SDS011;65739;51.482;5.702;2023-06-10T14:06:47;4.40;;;4.00;;
76786;SDS011;65739;51.482;5.702;2023-06-10T14:09:13;5.50;;;4.30;;
76786;SDS011;65739;51.482;5.702;2023-06-10T14:11:39;5.63;;;4.50;;
76786;SDS011;65739;51.482;5.702;2023-06-10T14:14:04;6.13;;;4.35;;
76786;SDS011;65739;51.482;5.702;2023-06-10T14:16:30;5.32;;;4.60;;
76786;SDS011;65739;51.482;5.702;2023-06-10T14:18:56;12.15;;;4.75;;
76786;SDS011;65739;51.482;5.702;2023-06-10T14:21:21;8.07;;;4.60;;
76786;SDS011;65739;51.482;5.702;2023-06-10T14:23:47;7.65;;;4.47;;
76786;SDS011;65739;51.482;5.702;2023-06-10T14:26:14;5.68;;;3.90;;
76786;SDS011;65739;51.482;5.702;2023-06-10T14:28:39;5.22;;;4.00;;
76786;SDS011;65739;51.482;5.702;2023-06-10T14:31:05;6.57;;;4.85;;
76786;SDS011;65739;51.482;5.702;2023-06-10T14:33:30;8.07;;;4.80;;
76786;SDS011;65739;51.482;5.702;2023-06-10T14:35:56;5.47;;;4.50;;
76786;SDS011;65739;51.482;5.702;2023-06-10T14:38:22;5.03;;;4.28;;
76786;SDS011;65739;51.482;5.702;2023-06-10T14:40:48;6.75;;;4.22;;
76786;SDS011;65739;51.482;5.702;2023-06-10T14:43:14;6.50;;;4.30;;
76786;SDS011;65739;51.482;5.702;2023-06-10T14:45:40;5.60;;;4.53;;
76786;SDS011;65739;51.482;5.702;2023-06-10T14:48:06;5.15;;;4.53;;
76786;SDS011;65739;51.482;5.702;2023-06-10T14:50:32;5.60;;;4.25;;
76786;SDS011;65739;51.482;5.702;2023-06-10T14:52:59;5.05;;;4.53;;
76786;SDS011;65739;51.482;5.702;2023-06-10T14:55:25;5.00;;;4.35;;
76786;SDS011;65739;51.482;5.702;2023-06-10T14:57:51;4.82;;;4.40;;
76786;SDS011;65739;51.482;5.702;2023-06-10T15:00:16;9.60;;;4.20;;
76786;SDS011;65739;51.482;5.702;2023-06-10T15:02:45;6.85;;;4.20;;
76786;SDS011;65739;51.482;5.702;2023-06-10T15:05:14;6.28;;;4.05;;
76786;SDS011;65739;51.482;5.702;2023-06-10T15:07:44;8.68;;;4.53;;
76786;SDS011;65739;51.482;5.702;2023-06-10T15:10:10;5.10;;;4.60;;
76786;SDS011;65739;51.482;5.702;2023-06-10T15:12:36;7.72;;;4.78;;
76786;SDS011;65739;51.482;5.702;2023-06-10T15:15:02;8.27;;;4.70;;
76786;SDS011;65739;51.482;5.702;2023-06-10T15:17:28;5.40;;;4.72;;
76786;SDS011;65739;51.482;5.702;2023-06-10T15:19:53;6.00;;;5.07;;
76786;SDS011;65739;51.482;5.702;2023-06-10T15:22:19;9.23;;;6.05;;
76786;SDS011;65739;51.482;5.702;2023-06-10T15:24:45;9.88;;;6.72;;
76786;SDS011;65739;51.482;5.702;2023-06-10T15:27:10;10.88;;;7.43;;